sensor_id;sensor_type;location;lat;lon;timestamp;pressure;altitude;pressure_sealevel;temperature;humidity
65557;BME280;52200;53.490;14.376;2024-03-23T00:53:30;100554.78;;;8.72;93.81
65557;BME280;52200;53.490;14.376;2024-03-23T00:55:55;100548.91;;;8.71;93.14
65557;BME280;52200;53.490;14.376;2024-03-23T00:58:21;100553.88;;;8.75;93.82
65557;BME280;52200;53.490;14.376;2024-03-23T01:00:46;100543.84;;;8.71;93.34
65557;BME280;52200;53.490;14.376;2024-03-23T01:03:12;100551.19;;;8.40;94.30
65557;BME280;52200;53.490;14.376;2024-03-23T01:05:37;100540.75;;;8.57;93.42
65557;BME280;52200;53.490;14.376;2024-03-23T01:08:03;100551.75;;;8.58;93.92
65557;BME280;52200;53.490;14.376;2024-03-23T01:10:28;100534.47;;;8.74;93.04
65557;BME280;52200;53.490;14.376;2024-03-23T01:12:54;100538.94;;;8.64;92.95
65557;BME280;52200;53.490;14.376;2024-03-23T01:15:19;100542.22;;;8.67;93.58
65557;BME280;52200;53.490;14.376;2024-03-23T01:17:45;100531.34;;;8.64;93.30
65557;BME280;52200;53.490;14.376;2024-03-23T01:20:10;100540.72;;;8.59;93.68
65557;BME280;52200;53.490;14.376;2024-03-23T01:22:36;100544.03;;;8.62;93.44
65557;BME280;52200;53.490;14.376;2024-03-23T01:25:01;100537.50;;;8.52;93.46
65557;BME280;52200;53.490;14.376;2024-03-23T01:27:27;100544.03;;;8.62;93.09
65557;BME280;52200;53.490;14.376;2024-03-23T01:29:52;100539.63;;;8.70;92.98
65557;BME280;52200;53.490;14.376;2024-03-23T01:32:18;100540.50;;;8.69;92.94
65557;BME280;52200;53.490;14.376;2024-03-23T01:34:44;100542.56;;;8.52;92.95
65557;BME280;52200;53.490;14.376;2024-03-23T01:37:09;100544.22;;;8.53;93.19
65557;BME280;52200;53.490;14.376;2024-03-23T01:39:35;100542.88;;;8.35;93.70
65557;BME280;52200;53.490;14.376;2024-03-23T01:42:00;100546.72;;;8.54;94.14
65557;BME280;52200;53.490;14.376;2024-03-23T01:44:26;100542.34;;;8.61;93.14
65557;BME280;52200;53.490;14.376;2024-03-23T01:46:51;100543.19;;;8.62;93.21
65557;BME280;52200;53.490;14.376;2024-03-23T01:49:17;100533.75;;;8.68;92.61
65557;BME280;52200;53.490;14.376;2024-03-23T01:51:43;100528.91;;;8.59;92.13
65557;BME280;52200;53.490;14.376;2024-03-23T01:54:09;100537.72;;;8.39;93.58
65557;BME280;52200;53.490;14.376;2024-03-23T01:56:35;100530.94;;;8.42;93.88
65557;BME280;52200;53.490;14.376;2024-03-23T01:59:01;100523.97;;;8.53;92.83
65557;BME280;52200;53.490;14.376;2024-03-23T02:01:27;100525.28;;;8.29;93.35
65557;BME280;52200;53.490;14.376;2024-03-23T02:03:52;100526.44;;;8.14;94.91
65557;BME280;52200;53.490;14.376;2024-03-23T02:06:18;100526.50;;;8.11;95.37
65557;BME280;52200;53.490;14.376;2024-03-23T02:08:43;100519.69;;;8.14;95.38
65557;BME280;52200;53.490;14.376;2024-03-23T02:11:09;100515.59;;;8.07;95.36
65557;BME280;52200;53.490;14.376;2024-03-23T02:13:35;100508.59;;;8.20;95.53
65557;BME280;52200;53.490;14.376;2024-03-23T02:16:00;100511.81;;;8.28;94.67
65557;BME280;52200;53.490;14.376;2024-03-23T02:18:26;100498.56;;;8.15;94.85
65557;BME280;52200;53.490;14.376;2024-03-23T02:20:51;100499.03;;;7.90;95.64
65557;BME280;52200;53.490;14.376;2024-03-23T02:23:17;100494.88;;;7.88;96.05
65557;BME280;52200;53.490;14.376;2024-03-23T02:25:43;100500.03;;;7.83;96.60
65557;BME280;52200;53.490;14.376;2024-03-23T02:28:09;100493.63;;;8.09;95.09
65557;BME280;52200;53.490;14.376;2024-03-23T02:30:35;100491.22;;;8.04;94.69
65557;BME280;52200;53.490;14.376;2024-03-23T02:33:00;100484.19;;;8.17;94.75
65557;BME280;52200;53.490;14.376;2024-03-23T02:35:26;100486.03;;;8.09;94.28
65557;BME280;52200;53.490;14.376;2024-03-23T02:37:52;100482.69;;;8.09;93.91
65557;BME280;52200;53.490;14.376;2024-03-23T02:40:19;100474.53;;;7.94;95.03
65557;BME280;52200;53.490;14.376;2024-03-23T02:42:45;100473.06;;;7.84;94.84
65557;BME280;52200;53.490;14.376;2024-03-23T02:45:11;100481.91;;;8.05;94.44
65557;BME280;52200;53.490;14.376;2024-03-23T02:47:37;100476.53;;;7.80;94.15
65557;BME280;52200;53.490;14.376;2024-03-23T02:50:03;100464.38;;;7.97;94.79
65557;BME280;52200;53.490;14.376;2024-03-23T02:52:29;100464.84;;;8.15;93.96
65557;BME280;52200;53.490;14.376;2024-03-23T02:54:55;100462.59;;;8.01;93.38
65557;BME280;52200;53.490;14.376;2024-03-23T02:57:20;100459.94;;;8.07;93.49
65557;BME280;52200;53.490;14.376;2024-03-23T02:59:46;100458.84;;;8.19;92.76
65557;BME280;52200;53.490;14.376;2024-03-23T03:02:12;100451.16;;;8.23;92.32
65557;BME280;52200;53.490;14.376;2024-03-23T03:04:38;100435.59;;;8.01;93.30
65557;BME280;52200;53.490;14.376;2024-03-23T03:07:03;100436.28;;;8.10;93.68
65557;BME280;52200;53.490;14.376;2024-03-23T03:09:29;100445.34;;;8.20;93.19
65557;BME280;52200;53.490;14.376;2024-03-23T03:11:55;100440.22;;;8.23;92.76
65557;BME280;52200;53.490;14.376;2024-03-23T03:14:21;100434.41;;;8.18;93.07
65557;BME280;52200;53.490;14.376;2024-03-23T03:16:46;100427.84;;;8.09;93.11
65557;BME280;52200;53.490;14.376;2024-03-23T03:19:12;100412.03;;;7.57;94.93
65557;BME280;52200;53.490;14.376;2024-03-23T03:21:37;100420.44;;;7.59;96.01
65557;BME280;52200;53.490;14.376;2024-03-23T03:24:06;100412.63;;;7.71;95.94
65557;BME280;52200;53.490;14.376;2024-03-23T03:26:32;100410.91;;;7.72;96.00
65557;BME280;52200;53.490;14.376;2024-03-23T03:28:57;100415.50;;;7.95;95.56
65557;BME280;52200;53.490;14.376;2024-03-23T03:31:23;100411.44;;;7.88;94.64
65557;BME280;52200;53.490;14.376;2024-03-23T03:33:49;100405.72;;;7.78;95.25
65557;BME280;52200;53.490;14.376;2024-03-23T03:36:15;100411.56;;;7.82;95.40
65557;BME280;52200;53.490;14.376;2024-03-23T03:38:40;100407.91;;;7.53;95.88
65557;BME280;52200;53.490;14.376;2024-03-23T03:41:06;100408.72;;;7.55;96.40
65557;BME280;52200;53.490;14.376;2024-03-23T03:43:32;100399.78;;;7.81;95.55
65557;BME280;52200;53.490;14.376;2024-03-23T03:46:00;100398.72;;;7.91;95.60
65557;BME280;52200;53.490;14.376;2024-03-23T03:48:26;100391.41;;;7.77;95.27
65557;BME280;52200;53.490;14.376;2024-03-23T03:50:52;100397.25;;;7.81;95.75
65557;BME280;52200;53.490;14.376;2024-03-23T03:53:19;100387.75;;;7.50;96.38
65557;BME280;52200;53.490;14.376;2024-03-23T03:55:44;100393.69;;;7.47;96.55
65557;BME280;52200;53.490;14.376;2024-03-23T03:58:10;100390.03;;;7.64;96.90
65557;BME280;52200;53.490;14.376;2024-03-23T04:00:35;100384.53;;;7.84;95.17
65557;BME280;52200;53.490;14.376;2024-03-23T04:03:01;100379.19;;;7.57;96.38
65557;BME280;52200;53.490;14.376;2024-03-23T04:05:27;100377.47;;;7.59;96.37
65557;BME280;52200;53.490;14.376;2024-03-23T04:07:52;100384.69;;;7.78;96.18
65557;BME280;52200;53.490;14.376;2024-03-23T04:10:18;100385.28;;;7.89;94.94
65557;BME280;52200;53.490;14.376;2024-03-23T04:12:44;100378.56;;;7.88;94.48
65557;BME280;52200;53.490;14.376;2024-03-23T04:15:10;100370.91;;;7.91;94.21
65557;BME280;52200;53.490;14.376;2024-03-23T04:17:36;100372.72;;;7.84;94.76
65557;BME280;52200;53.490;14.376;2024-03-23T04:20:02;100365.03;;;7.48;95.31
65557;BME280;52200;53.490;14.376;2024-03-23T04:22:30;100362.50;;;7.03;97.77
65557;BME280;52200;53.490;14.376;2024-03-23T04:24:57;100366.00;;;7.41;97.97
65557;BME280;52200;53.490;14.376;2024-03-23T04:27:23;100357.03;;;7.68;97.16
65557;BME280;52200;53.490;14.376;2024-03-23T04:29:52;100364.41;;;7.79;95.75
65557;BME280;52200;53.490;14.376;2024-03-23T04:32:20;100365.38;;;7.73;95.16
65557;BME280;52200;53.490;14.376;2024-03-23T04:34:46;100357.88;;;7.25;96.73
65557;BME280;52200;53.490;14.376;2024-03-23T04:37:11;100352.28;;;7.09;98.46
65557;BME280;52200;53.490;14.376;2024-03-23T04:39:37;100359.28;;;7.41;98.12
65557;BME280;52200;53.490;14.376;2024-03-23T04:42:04;100369.56;;;7.32;98.12
65557;BME280;52200;53.490;14.376;2024-03-23T04:44:29;100360.72;;;7.55;97.49
65557;BME280;52200;53.490;14.376;2024-03-23T04:46:56;100350.34;;;7.67;95.95
65557;BME280;52200;53.490;14.376;2024-03-23T04:49:21;100348.75;;;7.62;95.76
65557;BME280;52200;53.490;14.376;2024-03-23T04:51:47;100351.97;;;7.68;96.27
65557;BME280;52200;53.490;14.376;2024-03-23T04:54:12;100342.00;;;7.64;95.98
65557;BME280;52200;53.490;14.376;2024-03-23T04:56:38;100351.41;;;7.55;96.83
65557;BME280;52200;53.490;14.376;2024-03-23T04:59:04;100344.03;;;7.45;96.86
65557;BME280;52200;53.490;14.376;2024-03-23T05:01:33;100352.72;;;7.31;98.32
65557;BME280;52200;53.490;14.376;2024-03-23T05:03:59;100341.34;;;7.52;98.00
65557;BME280;52200;53.490;14.376;2024-03-23T05:06:25;100337.84;;;7.61;97.25
65557;BME280;52200;53.490;14.376;2024-03-23T05:08:53;100348.91;;;7.12;99.41
65557;BME280;52200;53.490;14.376;2024-03-23T05:11:19;100348.25;;;7.02;100.00
65557;BME280;52200;53.490;14.376;2024-03-23T05:13:46;100347.78;;;7.26;100.00
65557;BME280;52200;53.490;14.376;2024-03-23T05:16:11;100347.94;;;7.17;100.00
65557;BME280;52200;53.490;14.376;2024-03-23T05:18:37;100347.63;;;7.34;100.00
65557;BME280;52200;53.490;14.376;2024-03-23T05:21:03;100339.06;;;7.41;99.27
65557;BME280;52200;53.490;14.376;2024-03-23T05:23:29;100335.44;;;7.55;99.09
65557;BME280;52200;53.490;14.376;2024-03-23T05:25:54;100324.34;;;7.18;99.63
65557;BME280;52200;53.490;14.376;2024-03-23T05:28:21;100318.97;;;7.35;98.74
65557;BME280;52200;53.490;14.376;2024-03-23T05:30:53;100323.91;;;7.41;98.16
65557;BME280;52200;53.490;14.376;2024-03-23T05:33:20;100318.72;;;7.48;98.19
65557;BME280;52200;53.490;14.376;2024-03-23T05:35:46;100318.72;;;7.48;97.32
65557;BME280;52200;53.490;14.376;2024-03-23T05:38:11;100319.09;;;7.28;97.09
65557;BME280;52200;53.490;14.376;2024-03-23T05:40:37;100321.13;;;7.54;96.74
65557;BME280;52200;53.490;14.376;2024-03-23T05:43:07;100315.16;;;7.56;96.22
65557;BME280;52200;53.490;14.376;2024-03-23T05:45:34;100319.50;;;7.51;95.18
65557;BME280;52200;53.490;14.376;2024-03-23T05:47:59;100317.34;;;7.72;94.78
65557;BME280;52200;53.490;14.376;2024-03-23T05:50:25;100317.09;;;7.84;93.57
65557;BME280;52200;53.490;14.376;2024-03-23T05:52:50;100313.41;;;7.60;93.88
65557;BME280;52200;53.490;14.376;2024-03-23T05:55:16;100320.75;;;7.30;93.73
65557;BME280;52200;53.490;14.376;2024-03-23T05:57:41;100322.47;;;7.28;92.80
65557;BME280;52200;53.490;14.376;2024-03-23T06:00:08;100318.91;;;7.38;93.87
65557;BME280;52200;53.490;14.376;2024-03-23T06:02:43;100313.09;;;7.33;93.44
65557;BME280;52200;53.490;14.376;2024-03-23T06:05:12;100311.34;;;7.37;93.33
65557;BME280;52200;53.490;14.376;2024-03-23T06:07:37;100304.97;;;7.59;92.61
65557;BME280;52200;53.490;14.376;2024-03-23T06:10:07;100310.28;;;7.49;93.61
65557;BME280;52200;53.490;14.376;2024-03-23T06:12:32;100303.94;;;7.70;92.39
65557;BME280;52200;53.490;14.376;2024-03-23T06:14:58;100304.06;;;7.62;91.72
65557;BME280;52200;53.490;14.376;2024-03-23T06:17:23;100300.34;;;7.39;91.83
65557;BME280;52200;53.490;14.376;2024-03-23T06:19:49;100310.66;;;7.30;92.47
65557;BME280;52200;53.490;14.376;2024-03-23T06:22:14;100313.19;;;7.29;92.13
65557;BME280;52200;53.490;14.376;2024-03-23T06:24:40;100312.38;;;7.69;91.44
65557;BME280;52200;53.490;14.376;2024-03-23T06:27:06;100299.69;;;7.70;90.71
65557;BME280;52200;53.490;14.376;2024-03-23T06:29:31;100305.44;;;7.77;91.36
65557;BME280;52200;53.490;14.376;2024-03-23T06:31:57;100299.06;;;7.61;91.35
65557;BME280;52200;53.490;14.376;2024-03-23T06:34:23;100301.56;;;7.62;91.11
65557;BME280;52200;53.490;14.376;2024-03-23T06:36:49;100301.00;;;7.87;90.90
65557;BME280;52200;53.490;14.376;2024-03-23T06:39:17;100304.88;;;7.64;90.33
65557;BME280;52200;53.490;14.376;2024-03-23T06:41:52;100307.69;;;7.91;90.18
65557;BME280;52200;53.490;14.376;2024-03-23T06:44:18;100309.00;;;7.70;90.49
65557;BME280;52200;53.490;14.376;2024-03-23T06:46:44;100304.50;;;7.83;90.72
65557;BME280;52200;53.490;14.376;2024-03-23T06:49:10;100302.81;;;7.82;91.64
65557;BME280;52200;53.490;14.376;2024-03-23T06:51:35;100294.88;;;7.59;91.64
65557;BME280;52200;53.490;14.376;2024-03-23T06:54:05;100293.97;;;7.62;91.59
65557;BME280;52200;53.490;14.376;2024-03-23T06:56:31;100295.31;;;7.77;91.32
65557;BME280;52200;53.490;14.376;2024-03-23T06:58:57;100290.34;;;8.12;89.97
65557;BME280;52200;53.490;14.376;2024-03-23T07:01:23;100294.09;;;8.31;90.24
65557;BME280;52200;53.490;14.376;2024-03-23T07:03:48;100288.00;;;8.38;90.57
65557;BME280;52200;53.490;14.376;2024-03-23T07:06:14;100280.78;;;8.59;89.98
65557;BME280;52200;53.490;14.376;2024-03-23T07:08:39;100282.03;;;8.76;89.13
65557;BME280;52200;53.490;14.376;2024-03-23T07:11:05;100276.88;;;8.46;87.42
65557;BME280;52200;53.490;14.376;2024-03-23T07:13:31;100273.84;;;8.31;89.05
65557;BME280;52200;53.490;14.376;2024-03-23T07:15:56;100269.78;;;8.60;89.00
65557;BME280;52200;53.490;14.376;2024-03-23T07:18:23;100269.31;;;8.79;88.50
65557;BME280;52200;53.490;14.376;2024-03-23T07:20:58;100265.09;;;8.78;88.60
65557;BME280;52200;53.490;14.376;2024-03-23T07:23:26;100263.59;;;9.02;87.95
65557;BME280;52200;53.490;14.376;2024-03-23T07:26:01;100249.97;;;8.75;88.65
65557;BME280;52200;53.490;14.376;2024-03-23T07:28:28;100254.31;;;9.02;88.49
65557;BME280;52200;53.490;14.376;2024-03-23T07:31:05;100248.56;;;8.64;89.12
65557;BME280;52200;53.490;14.376;2024-03-23T07:33:31;100249.59;;;8.57;89.20
65557;BME280;52200;53.490;14.376;2024-03-23T07:35:57;100248.72;;;8.91;88.10
65557;BME280;52200;53.490;14.376;2024-03-23T07:38:23;100244.81;;;9.09;87.42
65557;BME280;52200;53.490;14.376;2024-03-23T07:40:48;100249.13;;;9.06;86.21
65557;BME280;52200;53.490;14.376;2024-03-23T07:43:19;100249.81;;;8.81;86.12
65557;BME280;52200;53.490;14.376;2024-03-23T07:45:51;100249.13;;;9.06;85.92
65557;BME280;52200;53.490;14.376;2024-03-23T07:48:17;100247.63;;;8.98;84.51
65557;BME280;52200;53.490;14.376;2024-03-23T07:50:43;100242.91;;;8.54;84.50
65557;BME280;52200;53.490;14.376;2024-03-23T07:53:08;100240.88;;;8.69;85.63
65557;BME280;52200;53.490;14.376;2024-03-23T07:55:34;100236.00;;;9.23;84.08
65557;BME280;52200;53.490;14.376;2024-03-23T07:57:59;100239.47;;;9.48;82.84
65557;BME280;52200;53.490;14.376;2024-03-23T08:00:25;100229.97;;;9.82;80.61
65557;BME280;52200;53.490;14.376;2024-03-23T08:02:51;100234.38;;;10.04;80.07
65557;BME280;52200;53.490;14.376;2024-03-23T08:05:17;100229.97;;;9.82;78.93
65557;BME280;52200;53.490;14.376;2024-03-23T08:07:42;100217.22;;;10.36;78.75
65557;BME280;52200;53.490;14.376;2024-03-23T08:10:08;100219.19;;;10.78;77.23
65557;BME280;52200;53.490;14.376;2024-03-23T08:12:33;100212.41;;;10.28;77.46
65557;BME280;52200;53.490;14.376;2024-03-23T08:14:59;100212.44;;;10.53;77.62
65557;BME280;52200;53.490;14.376;2024-03-23T08:17:24;100217.94;;;10.41;78.39
65557;BME280;52200;53.490;14.376;2024-03-23T08:19:50;100208.56;;;9.91;77.86
65557;BME280;52200;53.490;14.376;2024-03-23T08:22:15;100198.38;;;9.65;78.69
65557;BME280;52200;53.490;14.376;2024-03-23T08:24:41;100194.06;;;9.12;79.53
65557;BME280;52200;53.490;14.376;2024-03-23T08:27:06;100197.41;;;9.13;79.91
65557;BME280;52200;53.490;14.376;2024-03-23T08:29:32;100196.22;;;8.96;81.23
65557;BME280;52200;53.490;14.376;2024-03-23T08:31:57;100197.31;;;8.86;82.31
65557;BME280;52200;53.490;14.376;2024-03-23T08:34:22;100187.03;;;8.92;81.91
65557;BME280;52200;53.490;14.376;2024-03-23T08:36:48;100179.41;;;8.94;83.13
65557;BME280;52200;53.490;14.376;2024-03-23T08:39:13;100174.66;;;9.11;82.65
65557;BME280;52200;53.490;14.376;2024-03-23T08:41:39;100179.22;;;9.28;81.30
65557;BME280;52200;53.490;14.376;2024-03-23T08:44:04;100184.09;;;9.63;80.94
65557;BME280;52200;53.490;14.376;2024-03-23T08:46:30;100188.84;;;8.87;82.18
65557;BME280;52200;53.490;14.376;2024-03-23T08:48:55;100179.53;;;8.89;82.29
65557;BME280;52200;53.490;14.376;2024-03-23T08:51:21;100183.38;;;9.02;81.92
65557;BME280;52200;53.490;14.376;2024-03-23T08:53:46;100176.97;;;9.19;81.30
65557;BME280;52200;53.490;14.376;2024-03-23T08:56:12;100171.22;;;9.14;81.51
65557;BME280;52200;53.490;14.376;2024-03-23T08:58:38;100168.06;;;9.34;80.97
65557;BME280;52200;53.490;14.376;2024-03-23T09:01:08;100167.28;;;9.03;81.43
65557;BME280;52200;53.490;14.376;2024-03-23T09:03:34;100175.03;;;8.99;81.54
65557;BME280;52200;53.490;14.376;2024-03-23T09:06:01;100176.34;;;9.11;81.44
65557;BME280;52200;53.490;14.376;2024-03-23T09:08:26;100173.88;;;8.79;81.22
65557;BME280;52200;53.490;14.376;2024-03-23T09:10:52;100177.16;;;9.13;81.35
65557;BME280;52200;53.490;14.376;2024-03-23T09:13:18;100172.50;;;8.99;81.19
65557;BME280;52200;53.490;14.376;2024-03-23T09:15:51;100171.03;;;9.20;80.35
65557;BME280;52200;53.490;14.376;2024-03-23T09:18:17;100176.44;;;9.08;81.03
65557;BME280;52200;53.490;14.376;2024-03-23T09:20:43;100172.53;;;9.54;80.68
65557;BME280;52200;53.490;14.376;2024-03-23T09:23:09;100175.63;;;9.89;80.03
65557;BME280;52200;53.490;14.376;2024-03-23T09:25:38;100173.97;;;9.88;77.97
65557;BME280;52200;53.490;14.376;2024-03-23T09:28:08;100172.78;;;9.98;78.05
65557;BME280;52200;53.490;14.376;2024-03-23T09:30:34;100168.59;;;10.23;76.91
65557;BME280;52200;53.490;14.376;2024-03-23T09:33:00;100163.22;;;10.07;76.44
65557;BME280;52200;53.490;14.376;2024-03-23T09:35:26;100157.94;;;10.13;76.53
65557;BME280;52200;53.490;14.376;2024-03-23T09:37:52;100151.13;;;10.13;75.57
65557;BME280;52200;53.490;14.376;2024-03-23T09:40:18;100153.94;;;9.54;77.72
65557;BME280;52200;53.490;14.376;2024-03-23T09:42:50;100158.03;;;9.58;78.68
65557;BME280;52200;53.490;14.376;2024-03-23T09:45:27;100147.22;;;9.24;79.71
65557;BME280;52200;53.490;14.376;2024-03-23T09:47:54;100152.16;;;9.00;80.93
65557;BME280;52200;53.490;14.376;2024-03-23T09:50:21;100153.41;;;9.44;81.19
65557;BME280;52200;53.490;14.376;2024-03-23T09:52:47;100141.78;;;9.63;80.08
65557;BME280;52200;53.490;14.376;2024-03-23T09:55:13;100143.56;;;9.34;80.48
65557;BME280;52200;53.490;14.376;2024-03-23T09:57:39;100136.59;;;9.13;80.28
65557;BME280;52200;53.490;14.376;2024-03-23T10:00:05;100126.97;;;9.24;78.83
65557;BME280;52200;53.490;14.376;2024-03-23T10:02:32;100135.19;;;9.58;77.43
65557;BME280;52200;53.490;14.376;2024-03-23T10:04:59;100137.75;;;9.58;79.17
65557;BME280;52200;53.490;14.376;2024-03-23T10:07:25;100140.19;;;9.86;77.91
65557;BME280;52200;53.490;14.376;2024-03-23T10:09:50;100130.88;;;10.12;76.35
65557;BME280;52200;53.490;14.376;2024-03-23T10:12:18;100123.28;;;10.37;75.33
65557;BME280;52200;53.490;14.376;2024-03-23T10:14:44;100126.72;;;10.35;74.13
65557;BME280;52200;53.490;14.376;2024-03-23T10:17:21;100125.97;;;10.56;74.91
65557;BME280;52200;53.490;14.376;2024-03-23T10:19:51;100120.97;;;10.29;74.80
65557;BME280;52200;53.490;14.376;2024-03-23T10:22:22;100134.28;;;10.12;74.19
65557;BME280;52200;53.490;14.376;2024-03-23T10:24:48;100126.53;;;10.15;74.78
65557;BME280;52200;53.490;14.376;2024-03-23T10:27:19;100133.72;;;10.28;74.48
65557;BME280;52200;53.490;14.376;2024-03-23T10:29:48;100128.69;;;10.26;73.99
65557;BME280;52200;53.490;14.376;2024-03-23T10:32:15;100128.38;;;10.36;73.24
65557;BME280;52200;53.490;14.376;2024-03-23T10:34:41;100136.09;;;10.32;73.95
65557;BME280;52200;53.490;14.376;2024-03-23T10:37:08;100125.47;;;9.97;77.41
65557;BME280;52200;53.490;14.376;2024-03-23T10:39:38;100116.44;;;9.89;77.14
65557;BME280;52200;53.490;14.376;2024-03-23T10:42:05;100103.47;;;9.73;76.79
65557;BME280;52200;53.490;14.376;2024-03-23T10:44:31;100112.81;;;9.71;76.41
65557;BME280;52200;53.490;14.376;2024-03-23T10:46:58;100126.09;;;9.52;75.74
65557;BME280;52200;53.490;14.376;2024-03-23T10:49:31;100113.50;;;9.76;77.12
65557;BME280;52200;53.490;14.376;2024-03-23T10:52:05;100122.88;;;9.47;76.33
65557;BME280;52200;53.490;14.376;2024-03-23T10:54:32;100114.81;;;9.35;76.70
65557;BME280;52200;53.490;14.376;2024-03-23T10:57:11;100116.75;;;9.27;79.01
65557;BME280;52200;53.490;14.376;2024-03-23T10:59:39;100115.34;;;9.17;77.55
65557;BME280;52200;53.490;14.376;2024-03-23T11:02:05;100118.47;;;9.25;77.62
65557;BME280;52200;53.490;14.376;2024-03-23T11:04:36;100121.63;;;9.60;77.93
65557;BME280;52200;53.490;14.376;2024-03-23T11:09:53;100127.16;;;9.72;73.75
65557;BME280;52200;53.490;14.376;2024-03-23T11:14:48;100129.66;;;9.46;73.51
65557;BME280;52200;53.490;14.376;2024-03-23T11:17:19;100126.22;;;9.20;74.13
65557;BME280;52200;53.490;14.376;2024-03-23T11:19:56;100125.03;;;9.32;74.07
65557;BME280;52200;53.490;14.376;2024-03-23T11:22:41;100129.41;;;9.27;73.84
65557;BME280;52200;53.490;14.376;2024-03-23T11:25:32;100122.50;;;9.04;74.68
65557;BME280;52200;53.490;14.376;2024-03-23T11:28:10;100133.13;;;9.15;73.79
65557;BME280;52200;53.490;14.376;2024-03-23T11:30:36;100142.19;;;9.51;74.77
65557;BME280;52200;53.490;14.376;2024-03-23T11:33:05;100138.09;;;9.47;74.34
65557;BME280;52200;53.490;14.376;2024-03-23T11:35:37;100142.63;;;9.64;74.06
65557;BME280;52200;53.490;14.376;2024-03-23T11:38:17;100136.81;;;9.33;73.32
65557;BME280;52200;53.490;14.376;2024-03-23T11:40:49;100137.31;;;9.45;72.42
65557;BME280;52200;53.490;14.376;2024-03-23T11:43:17;100132.84;;;9.53;72.75
65557;BME280;52200;53.490;14.376;2024-03-23T11:45:48;100138.38;;;9.91;72.63
65557;BME280;52200;53.490;14.376;2024-03-23T11:48:19;100128.63;;;10.28;72.48
65557;BME280;52200;53.490;14.376;2024-03-23T11:50:47;100127.50;;;10.37;71.05
65557;BME280;52200;53.490;14.376;2024-03-23T11:53:18;100128.72;;;10.01;71.27
65557;BME280;52200;53.490;14.376;2024-03-23T11:58:11;100133.59;;;9.82;72.42
65557;BME280;52200;53.490;14.376;2024-03-23T12:00:37;100141.38;;;10.03;72.78
65557;BME280;52200;53.490;14.376;2024-03-23T12:03:03;100137.66;;;9.86;72.90
65557;BME280;52200;53.490;14.376;2024-03-23T12:05:29;100150.00;;;9.72;72.20
65557;BME280;52200;53.490;14.376;2024-03-23T12:07:56;100143.16;;;9.20;68.69
65557;BME280;52200;53.490;14.376;2024-03-23T12:10:40;100144.25;;;8.83;68.93
65557;BME280;52200;53.490;14.376;2024-03-23T12:13:05;100143.34;;;9.14;69.49
65557;BME280;52200;53.490;14.376;2024-03-23T12:15:31;100144.56;;;9.00;67.62
65557;BME280;52200;53.490;14.376;2024-03-23T12:18:09;100143.69;;;9.01;67.67
65557;BME280;52200;53.490;14.376;2024-03-23T12:20:36;100145.22;;;9.35;67.44
65557;BME280;52200;53.490;14.376;2024-03-23T12:23:07;100153.03;;;9.28;66.09
65557;BME280;52200;53.490;14.376;2024-03-23T12:25:33;100155.06;;;9.16;65.88
65557;BME280;52200;53.490;14.376;2024-03-23T12:27:59;100148.63;;;9.06;66.23
65557;BME280;52200;53.490;14.376;2024-03-23T12:30:25;100144.69;;;8.96;65.50
65557;BME280;52200;53.490;14.376;2024-03-23T12:32:50;100148.28;;;9.17;66.88
65557;BME280;52200;53.490;14.376;2024-03-23T12:35:16;100157.69;;;9.68;66.77
65557;BME280;52200;53.490;14.376;2024-03-23T12:37:41;100149.94;;;9.19;65.59
65557;BME280;52200;53.490;14.376;2024-03-23T12:40:07;100152.78;;;9.37;65.61
65557;BME280;52200;53.490;14.376;2024-03-23T12:42:33;100154.56;;;9.33;65.90
65557;BME280;52200;53.490;14.376;2024-03-23T12:44:58;100153.09;;;9.26;66.22
65557;BME280;52200;53.490;14.376;2024-03-23T12:47:24;100148.28;;;9.17;65.98
65557;BME280;52200;53.490;14.376;2024-03-23T12:49:49;100140.38;;;9.28;65.90
65557;BME280;52200;53.490;14.376;2024-03-23T12:52:15;100154.25;;;9.44;65.11
65557;BME280;52200;53.490;14.376;2024-03-23T12:54:40;100146.88;;;9.89;65.03
65557;BME280;52200;53.490;14.376;2024-03-23T12:57:06;100149.28;;;9.93;63.53
65557;BME280;52200;53.490;14.376;2024-03-23T12:59:31;100149.53;;;9.60;63.32
65557;BME280;52200;53.490;14.376;2024-03-23T13:01:57;100159.75;;;9.57;63.29
65557;BME280;52200;53.490;14.376;2024-03-23T13:04:23;100162.47;;;9.78;63.32
65557;BME280;52200;53.490;14.376;2024-03-23T13:06:48;100155.53;;;10.08;63.58
65557;BME280;52200;53.490;14.376;2024-03-23T13:09:13;100162.84;;;9.92;63.10
65557;BME280;52200;53.490;14.376;2024-03-23T13:11:39;100162.91;;;10.16;63.22
65557;BME280;52200;53.490;14.376;2024-03-23T13:14:04;100162.03;;;10.66;63.69
65557;BME280;52200;53.490;14.376;2024-03-23T13:16:30;100159.72;;;10.36;62.36
65557;BME280;52200;53.490;14.376;2024-03-23T13:18:56;100163.41;;;10.51;62.66
65557;BME280;52200;53.490;14.376;2024-03-23T13:21:21;100149.25;;;10.68;63.45
65557;BME280;52200;53.490;14.376;2024-03-23T13:23:47;100157.22;;;10.58;62.72
65557;BME280;52200;53.490;14.376;2024-03-23T13:26:13;100155.88;;;10.48;60.84
65557;BME280;52200;53.490;14.376;2024-03-23T13:28:39;100153.69;;;10.39;61.73
65557;BME280;52200;53.490;14.376;2024-03-23T13:31:05;100140.56;;;10.97;61.58
65557;BME280;52200;53.490;14.376;2024-03-23T13:33:30;100141.59;;;10.91;59.90
65557;BME280;52200;53.490;14.376;2024-03-23T13:35:58;100153.75;;;10.61;60.22
65557;BME280;52200;53.490;14.376;2024-03-23T13:38:25;100149.28;;;10.44;60.35
65557;BME280;52200;53.490;14.376;2024-03-23T13:40:57;100153.97;;;10.78;60.81
65557;BME280;52200;53.490;14.376;2024-03-23T13:43:23;100155.22;;;10.90;61.00
65557;BME280;52200;53.490;14.376;2024-03-23T13:45:53;100150.28;;;10.40;60.38